createdAt,value
2022-12-05T00:00:45.649Z,25.40
2022-12-05T00:01:40.936Z,28.60
2022-12-05T00:02:37.221Z,23.70
2022-12-05T00:03:32.415Z,26.50
2022-12-05T00:04:28.265Z,24.20
2022-12-05T00:05:23.328Z,20.90
2022-12-05T00:06:18.497Z,26.50
2022-12-05T00:07:14.409Z,23.90
2022-12-05T00:08:09.661Z,24.20
2022-12-05T00:09:05.505Z,22.40
2022-12-05T00:10:00.703Z,24.60
2022-12-05T00:10:55.764Z,20.90
2022-12-05T00:11:50.937Z,22.70
2022-12-05T00:12:46.233Z,24.60
2022-12-05T00:13:41.235Z,22.20
2022-12-05T00:14:36.310Z,26.40
2022-12-05T00:15:31.333Z,24.50
2022-12-05T00:16:26.744Z,25.70
2022-12-05T00:17:21.690Z,25.20
2022-12-05T00:18:17.823Z,25.90
2022-12-05T00:19:12.860Z,23.80
2022-12-05T00:20:07.938Z,25.40
2022-12-05T00:21:02.946Z,28.40
2022-12-05T00:21:58.054Z,26.30
2022-12-05T00:22:53.062Z,24.10
2022-12-05T00:23:49.389Z,28.50
2022-12-05T00:24:44.532Z,25.90
2022-12-05T00:25:39.716Z,28.90
2022-12-05T00:26:39.086Z,27.60
2022-12-05T00:27:34.154Z,25.30
2022-12-05T00:28:29.351Z,27.00
2022-12-05T00:29:24.519Z,26.40
2022-12-05T00:30:19.665Z,27.20
2022-12-05T00:31:15.131Z,26.00
2022-12-05T00:32:10.842Z,27.30
2022-12-05T00:33:06.092Z,33.40
2022-12-05T00:34:01.282Z,29.60
2022-12-05T00:34:56.460Z,28.80
2022-12-05T00:35:51.612Z,28.20
2022-12-05T00:36:46.673Z,28.90
2022-12-05T00:37:41.691Z,25.40
2022-12-05T00:38:36.750Z,24.80
2022-12-05T00:39:31.751Z,31.20
2022-12-05T00:40:26.790Z,27.80
2022-12-05T00:41:21.850Z,26.50
2022-12-05T00:42:17.144Z,26.40
2022-12-05T00:43:12.300Z,23.10
2022-12-05T00:44:07.342Z,22.80
2022-12-05T00:45:02.383Z,22.00
2022-12-05T00:45:57.555Z,21.00
2022-12-05T00:46:52.446Z,21.30
2022-12-05T00:47:47.460Z,20.80
2022-12-05T00:48:42.508Z,22.30
2022-12-05T00:49:37.526Z,23.50
2022-12-05T00:50:32.544Z,21.20
2022-12-05T00:51:27.601Z,29.20
2022-12-05T00:52:22.644Z,23.10
2022-12-05T00:53:17.667Z,24.50
2022-12-05T00:54:12.668Z,23.90
2022-12-05T00:55:08.432Z,22.30
2022-12-05T00:56:03.593Z,25.10
2022-12-05T00:56:58.913Z,22.90
2022-12-05T00:57:55.185Z,23.30
2022-12-05T00:58:50.389Z,21.40
2022-12-05T00:59:46.128Z,19.10
2022-12-05T01:00:41.389Z,20.40
2022-12-05T01:01:36.596Z,23.40
2022-12-05T01:02:32.405Z,22.30
2022-12-05T01:03:27.633Z,25.10
2022-12-05T01:04:23.415Z,24.80
2022-12-05T01:05:18.538Z,24.70
2022-12-05T01:06:14.123Z,25.90
2022-12-05T01:07:09.807Z,23.70
2022-12-05T01:08:05.054Z,27.20
2022-12-05T01:09:00.136Z,21.30
2022-12-05T01:09:56.936Z,25.10
2022-12-05T01:10:51.897Z,27.00
2022-12-05T01:11:47.755Z,24.40
2022-12-05T01:12:42.894Z,28.00
2022-12-05T01:13:38.112Z,24.60
2022-12-05T01:14:33.851Z,26.30
2022-12-05T01:15:29.057Z,25.50
2022-12-05T01:16:25.067Z,21.30
2022-12-05T01:17:20.255Z,23.00
2022-12-05T01:18:15.585Z,21.70
2022-12-05T01:19:11.807Z,19.70
2022-12-05T01:20:06.721Z,20.60
2022-12-05T01:21:01.898Z,21.80
2022-12-05T01:21:58.283Z,19.80
2022-12-05T01:22:53.573Z,18.60
2022-12-05T01:23:49.310Z,14.50
2022-12-05T01:24:44.508Z,20.00
2022-12-05T01:25:39.691Z,20.00
2022-12-05T01:26:35.597Z,23.10
2022-12-05T01:27:30.774Z,18.20
2022-12-05T01:28:26.690Z,18.60
2022-12-05T01:29:21.814Z,23.40
2022-12-05T01:30:16.937Z,24.60
2022-12-05T01:31:12.678Z,19.30
2022-12-05T01:32:08.020Z,17.00
2022-12-05T01:33:03.344Z,18.60
2022-12-05T01:33:59.634Z,17.60
2022-12-05T01:34:54.878Z,20.30
2022-12-05T01:35:50.642Z,18.20
2022-12-05T01:36:45.772Z,22.10
2022-12-05T01:37:41.205Z,18.00
2022-12-05T01:38:36.857Z,15.20
2022-12-05T01:39:32.036Z,19.50
2022-12-05T01:40:27.771Z,18.90
2022-12-05T01:41:22.938Z,20.10
2022-12-05T01:42:21.872Z,19.80
2022-12-05T01:43:14.916Z,18.70
2022-12-05T01:44:09.143Z,20.30
2022-12-05T01:45:04.344Z,17.70
2022-12-05T01:46:00.752Z,21.30
2022-12-05T01:46:56.035Z,13.70
2022-12-05T01:47:51.761Z,16.60
2022-12-05T01:48:46.910Z,19.20
2022-12-05T01:49:42.234Z,18.90
2022-12-05T01:50:37.947Z,19.50
2022-12-05T01:51:33.126Z,18.20
2022-12-05T01:52:28.404Z,21.70
2022-12-05T01:53:23.543Z,19.80
2022-12-05T01:54:18.768Z,19.60
2022-12-05T01:55:13.768Z,19.90
2022-12-05T01:56:08.803Z,19.90
2022-12-05T01:57:03.823Z,16.30
2022-12-05T01:57:58.865Z,19.00
2022-12-05T01:58:53.954Z,16.70
2022-12-05T01:59:49.030Z,21.80
2022-12-05T02:00:44.085Z,21.20
2022-12-05T02:01:39.202Z,18.60
2022-12-05T02:02:34.187Z,18.00
2022-12-05T02:03:29.252Z,18.90
2022-12-05T02:04:24.259Z,19.60
2022-12-05T02:05:19.413Z,22.10
2022-12-05T02:06:14.466Z,20.50
2022-12-05T02:07:09.604Z,21.10
2022-12-05T02:08:04.667Z,17.00
2022-12-05T02:08:59.708Z,17.90
2022-12-05T02:09:55.143Z,17.70
2022-12-05T02:10:50.185Z,16.80
2022-12-05T02:11:45.336Z,23.20
2022-12-05T02:12:40.654Z,20.10
2022-12-05T02:13:35.666Z,20.40
2022-12-05T02:14:30.974Z,17.70
2022-12-05T02:15:26.167Z,19.50
2022-12-05T02:16:21.498Z,19.20
2022-12-05T02:17:17.347Z,21.60
2022-12-05T02:18:12.635Z,21.30
2022-12-05T02:19:08.078Z,20.10
2022-12-05T02:20:03.114Z,20.70
2022-12-05T02:20:58.103Z,18.60
2022-12-05T02:21:53.267Z,21.40
2022-12-05T02:22:48.431Z,18.60
2022-12-05T02:23:43.582Z,17.60
2022-12-05T02:24:38.800Z,20.10
2022-12-05T02:25:37.612Z,18.20
2022-12-05T02:26:32.768Z,17.00
2022-12-05T02:27:27.938Z,17.60
2022-12-05T02:28:23.077Z,18.20
2022-12-05T02:29:18.379Z,19.10
2022-12-05T02:30:13.583Z,22.50
2022-12-05T02:31:08.800Z,17.60
2022-12-05T02:32:03.929Z,19.80
2022-12-05T02:32:59.125Z,18.90
2022-12-05T02:33:54.847Z,20.50
2022-12-05T02:34:50.068Z,17.90
2022-12-05T02:35:45.775Z,16.90
2022-12-05T02:36:41.053Z,23.00
2022-12-05T02:37:36.245Z,19.40
2022-12-05T02:38:32.088Z,22.90
2022-12-05T02:39:27.292Z,19.60
2022-12-05T02:40:22.453Z,20.10
2022-12-05T02:41:18.736Z,17.80
2022-12-05T02:42:13.924Z,18.00
2022-12-05T02:43:09.639Z,20.70
2022-12-05T02:44:04.819Z,20.50
2022-12-05T02:44:59.988Z,19.70
2022-12-05T02:45:55.962Z,19.50
2022-12-05T02:46:51.179Z,21.30
2022-12-05T02:47:47.051Z,22.40
2022-12-05T02:48:42.099Z,19.10
2022-12-05T02:49:37.616Z,20.60
2022-12-05T02:50:33.081Z,22.60
2022-12-05T02:51:28.394Z,20.70
2022-12-05T02:52:23.666Z,22.20
2022-12-05T02:53:20.079Z,21.50
2022-12-05T02:54:15.266Z,22.40
2022-12-05T02:55:11.027Z,22.80
2022-12-05T02:56:06.152Z,20.90
2022-12-05T02:57:01.609Z,22.60
2022-12-05T02:57:57.204Z,20.30
2022-12-05T02:58:52.573Z,20.00
2022-12-05T02:59:48.310Z,21.90
2022-12-05T03:00:43.611Z,19.80
2022-12-05T03:01:38.965Z,19.70
2022-12-05T03:02:34.591Z,22.50
2022-12-05T03:03:29.743Z,23.40
2022-12-05T03:04:25.007Z,21.70
2022-12-05T03:05:21.361Z,27.60
2022-12-05T03:06:16.729Z,22.80
2022-12-05T03:07:12.447Z,25.70
2022-12-05T03:08:07.795Z,22.70
2022-12-05T03:09:02.851Z,23.20
2022-12-05T03:09:58.977Z,21.70
2022-12-05T03:10:53.975Z,19.70
2022-12-05T03:11:49.867Z,21.30
2022-12-05T03:12:45.026Z,20.70
2022-12-05T03:13:40.367Z,22.40
2022-12-05T03:14:36.088Z,22.50
2022-12-05T03:15:31.349Z,21.20
2022-12-05T03:16:26.602Z,22.00
2022-12-05T03:17:22.928Z,24.10
2022-12-05T03:18:18.183Z,23.00
2022-12-05T03:19:13.923Z,20.40
2022-12-05T03:20:09.083Z,23.30
2022-12-05T03:21:04.266Z,22.20
2022-12-05T03:22:00.028Z,20.40
2022-12-05T03:22:55.207Z,23.80
2022-12-05T03:23:51.050Z,23.50
2022-12-05T03:24:46.094Z,19.90
2022-12-05T03:25:41.344Z,25.30
2022-12-05T03:26:37.225Z,23.80
2022-12-05T03:27:32.382Z,21.80
2022-12-05T03:28:27.692Z,25.70
2022-12-05T03:29:23.955Z,23.90
2022-12-05T03:30:19.259Z,24.50
2022-12-05T03:31:15.248Z,23.00
2022-12-05T03:32:10.388Z,21.40
2022-12-05T03:33:05.806Z,21.70
2022-12-05T03:34:00.989Z,22.60
2022-12-05T03:34:56.135Z,25.80
2022-12-05T03:35:52.573Z,25.20
2022-12-05T03:36:47.761Z,25.90
2022-12-05T03:37:43.624Z,25.90
2022-12-05T03:38:38.781Z,26.10
2022-12-05T03:39:33.952Z,26.50
2022-12-05T03:40:29.840Z,24.80
2022-12-05T03:41:25.013Z,26.20
2022-12-05T03:42:20.865Z,21.40
2022-12-05T03:43:15.880Z,28.20
2022-12-05T03:44:11.345Z,28.10
2022-12-05T03:45:07.101Z,22.90
2022-12-05T03:46:02.360Z,29.90
2022-12-05T03:46:57.630Z,24.50
2022-12-05T03:47:54.056Z,26.30
2022-12-05T03:48:49.240Z,27.30
2022-12-05T03:49:45.006Z,27.70
2022-12-05T03:50:40.152Z,31.00
2022-12-05T03:51:35.567Z,28.30
2022-12-05T03:52:30.596Z,25.50
2022-12-05T03:53:25.941Z,26.40
2022-12-05T03:54:21.180Z,26.50
2022-12-05T03:55:16.320Z,30.60
2022-12-05T03:56:11.746Z,29.00
2022-12-05T03:57:07.636Z,27.40
2022-12-05T03:58:02.819Z,27.90
2022-12-05T03:58:58.025Z,29.00
2022-12-05T03:59:53.177Z,27.00
2022-12-05T04:00:48.226Z,26.40
2022-12-05T04:01:43.408Z,30.50
2022-12-05T04:02:38.402Z,31.10
2022-12-05T04:03:33.483Z,30.20
2022-12-05T04:04:28.579Z,28.70
2022-12-05T04:05:23.737Z,27.10
2022-12-05T04:06:18.994Z,26.60
2022-12-05T04:07:14.150Z,24.90
2022-12-05T04:08:09.294Z,27.80
2022-12-05T04:09:04.275Z,30.10
2022-12-05T04:09:59.787Z,29.10
2022-12-05T04:10:54.389Z,29.50
2022-12-05T04:11:49.606Z,25.60
2022-12-05T04:12:44.792Z,35.40
2022-12-05T04:13:39.982Z,28.50
2022-12-05T04:14:35.126Z,32.50
2022-12-05T04:15:30.224Z,30.60
2022-12-05T04:16:25.289Z,32.10
2022-12-05T04:17:20.239Z,27.10
2022-12-05T04:18:15.258Z,30.80
2022-12-05T04:19:10.338Z,33.40
2022-12-05T04:20:05.339Z,30.20
2022-12-05T04:21:00.383Z,30.10
2022-12-05T04:21:55.442Z,32.80
2022-12-05T04:22:50.499Z,28.80
2022-12-05T04:23:47.841Z,30.50
2022-12-05T04:24:41.072Z,29.30
2022-12-05T04:25:36.251Z,27.10
2022-12-05T04:26:32.674Z,28.70
2022-12-05T04:27:27.879Z,28.40
2022-12-05T04:28:23.620Z,33.60
2022-12-05T04:29:18.801Z,31.00
2022-12-05T04:30:14.059Z,32.90
2022-12-05T04:31:09.880Z,31.00
2022-12-05T04:32:05.120Z,29.50
2022-12-05T04:33:00.877Z,30.10
2022-12-05T04:33:56.059Z,32.60
2022-12-05T04:34:51.387Z,28.80
2022-12-05T04:35:47.193Z,29.80
2022-12-05T04:36:42.370Z,29.70
2022-12-05T04:37:37.538Z,30.10
2022-12-05T04:38:33.956Z,28.80
2022-12-05T04:39:29.155Z,30.70
2022-12-05T04:40:24.926Z,30.60
2022-12-05T04:41:20.113Z,29.60
2022-12-05T04:42:15.296Z,33.30
2022-12-05T04:43:11.062Z,30.00
2022-12-05T04:44:06.229Z,27.10
2022-12-05T04:45:02.316Z,27.40
2022-12-05T04:45:57.419Z,28.70
2022-12-05T04:46:52.642Z,26.30
2022-12-05T04:47:48.410Z,26.90
2022-12-05T04:48:43.732Z,25.40
2022-12-05T04:49:39.002Z,30.20
2022-12-05T04:50:35.492Z,30.70
2022-12-05T04:51:30.644Z,30.80
2022-12-05T04:52:26.562Z,27.60
2022-12-05T04:53:21.711Z,32.20
2022-12-05T04:54:17.188Z,29.20
2022-12-05T04:55:12.833Z,28.90
2022-12-05T04:56:08.022Z,28.10
2022-12-05T04:57:03.777Z,28.50
2022-12-05T04:57:58.964Z,24.70
2022-12-05T04:58:54.286Z,25.10
2022-12-05T04:59:49.945Z,31.20
2022-12-05T05:00:45.162Z,32.60
2022-12-05T05:01:40.413Z,27.10
2022-12-05T05:02:36.864Z,33.30
2022-12-05T05:03:32.235Z,25.80
2022-12-05T05:04:27.850Z,30.70
2022-12-05T05:05:23.181Z,29.30
2022-12-05T05:06:18.367Z,29.50
2022-12-05T05:07:14.143Z,32.20
2022-12-05T05:08:09.359Z,26.70
2022-12-05T05:09:04.596Z,32.90
2022-12-05T05:10:01.111Z,27.60
2022-12-05T05:10:56.387Z,27.60
2022-12-05T05:11:51.430Z,29.30
2022-12-05T05:12:47.896Z,32.10
2022-12-05T05:13:43.083Z,30.30
2022-12-05T05:14:38.818Z,32.60
2022-12-05T05:15:34.013Z,31.30
2022-12-05T05:16:29.275Z,22.70
2022-12-05T05:17:25.151Z,26.90
2022-12-05T05:18:20.368Z,25.80
2022-12-05T05:19:16.251Z,26.60
2022-12-05T05:20:14.343Z,28.30
2022-12-05T05:21:06.717Z,34.10
2022-12-05T05:22:02.592Z,24.40
2022-12-05T05:22:57.625Z,25.60
2022-12-05T05:23:53.077Z,27.30
2022-12-05T05:24:48.106Z,28.00
2022-12-05T05:25:43.432Z,24.40
2022-12-05T05:26:38.491Z,27.30
2022-12-05T05:27:33.506Z,24.30
2022-12-05T05:28:28.536Z,24.70
2022-12-05T05:29:23.660Z,22.90
2022-12-05T05:30:18.703Z,25.60
2022-12-05T05:31:13.847Z,28.20
2022-12-05T05:32:08.813Z,27.40
2022-12-05T05:33:03.860Z,28.30
2022-12-05T05:33:58.851Z,24.70
2022-12-05T05:34:53.898Z,25.70
2022-12-05T05:35:48.972Z,31.00
2022-12-05T05:36:44.020Z,24.70
2022-12-05T05:37:39.196Z,26.90
2022-12-05T05:38:34.276Z,25.40
2022-12-05T05:39:29.312Z,27.80
2022-12-05T05:40:24.386Z,26.50
2022-12-05T05:41:19.387Z,23.80
2022-12-05T05:42:14.446Z,26.70
2022-12-05T05:43:09.511Z,26.00
2022-12-05T05:44:04.539Z,28.00
2022-12-05T05:44:59.604Z,25.90
2022-12-05T05:45:54.646Z,28.00
2022-12-05T05:46:49.739Z,26.50
2022-12-05T05:47:44.784Z,29.30
2022-12-05T05:48:39.815Z,23.80
2022-12-05T05:49:34.992Z,24.80
2022-12-05T05:50:30.014Z,24.50
2022-12-05T05:51:25.052Z,28.80
2022-12-05T05:52:20.119Z,28.40
2022-12-05T05:53:15.169Z,25.80
2022-12-05T05:54:10.222Z,27.80
2022-12-05T05:55:05.291Z,27.20
2022-12-05T05:56:00.298Z,26.40
2022-12-05T05:56:55.381Z,24.00
2022-12-05T05:57:50.437Z,27.20
2022-12-05T05:58:45.517Z,27.10
2022-12-05T05:59:40.597Z,26.00
2022-12-05T06:00:35.785Z,26.80
2022-12-05T06:01:30.858Z,24.40
2022-12-05T06:02:25.993Z,25.30
2022-12-05T06:03:20.998Z,25.20
2022-12-05T06:04:16.062Z,28.60
2022-12-05T06:05:10.990Z,27.10
2022-12-05T06:06:06.077Z,29.70
2022-12-05T06:07:01.120Z,27.20
2022-12-05T06:07:58.292Z,29.10
2022-12-05T06:08:53.236Z,29.70
2022-12-05T06:09:48.274Z,25.70
2022-12-05T06:10:43.322Z,27.00
2022-12-05T06:11:38.384Z,29.00
2022-12-05T06:12:33.437Z,24.00
2022-12-05T06:13:28.510Z,29.00
2022-12-05T06:14:23.542Z,27.90
2022-12-05T06:15:18.647Z,26.20
2022-12-05T06:16:13.731Z,29.70
2022-12-05T06:17:08.815Z,27.00
2022-12-05T06:18:04.529Z,30.40
2022-12-05T06:18:59.709Z,24.20
2022-12-05T06:19:55.069Z,25.60
2022-12-05T06:20:50.199Z,25.40
2022-12-05T06:21:45.583Z,29.30
2022-12-05T06:22:40.765Z,23.20
2022-12-05T06:23:35.942Z,27.30
2022-12-05T06:24:31.159Z,25.00
2022-12-05T06:25:26.337Z,23.20
2022-12-05T06:26:21.526Z,32.40
2022-12-05T06:27:16.874Z,26.20
2022-12-05T06:28:11.969Z,22.90
2022-12-05T06:29:07.148Z,23.50
2022-12-05T06:30:02.370Z,26.40
2022-12-05T06:30:57.421Z,26.20
2022-12-05T06:31:52.515Z,32.00
2022-12-05T06:32:47.601Z,28.00
2022-12-05T06:33:42.765Z,28.50
2022-12-05T06:34:37.943Z,29.10
2022-12-05T06:35:32.970Z,26.00
2022-12-05T06:36:28.048Z,27.50
2022-12-05T06:37:23.237Z,33.90
2022-12-05T06:38:18.234Z,34.50
2022-12-05T06:39:13.270Z,30.60
2022-12-05T06:40:08.258Z,29.50
2022-12-05T06:41:03.369Z,29.00
2022-12-05T06:41:58.456Z,37.40
2022-12-05T06:42:53.619Z,29.50
2022-12-05T06:43:48.614Z,30.10
2022-12-05T06:44:43.615Z,25.50
2022-12-05T06:45:38.705Z,24.10
2022-12-05T06:46:33.805Z,23.50
2022-12-05T06:47:28.746Z,25.30
2022-12-05T06:48:23.861Z,26.70
2022-12-05T06:49:18.951Z,23.50
2022-12-05T06:50:14.022Z,23.50
2022-12-05T06:51:12.498Z,24.20
2022-12-05T06:52:07.638Z,24.00
2022-12-05T06:53:02.632Z,23.20
2022-12-05T06:53:57.801Z,24.20
2022-12-05T06:54:52.817Z,23.80
2022-12-05T06:55:47.924Z,24.20
2022-12-05T06:56:42.899Z,25.80
2022-12-05T06:57:37.965Z,26.80
2022-12-05T06:58:33.061Z,23.00
2022-12-05T06:59:28.142Z,24.90
2022-12-05T07:00:23.160Z,22.80
2022-12-05T07:01:18.329Z,23.60
2022-12-05T07:02:13.785Z,25.30
2022-12-05T07:03:09.047Z,24.40
2022-12-05T07:04:04.458Z,28.20
2022-12-05T07:05:00.445Z,23.90
2022-12-05T07:05:55.640Z,24.50
2022-12-05T07:06:51.504Z,23.80
2022-12-05T07:07:46.895Z,22.80
2022-12-05T07:08:42.313Z,27.30
2022-12-05T07:09:37.984Z,24.40
2022-12-05T07:10:33.349Z,26.60
2022-12-05T07:11:28.689Z,25.50
2022-12-05T07:12:25.109Z,25.90
2022-12-05T07:13:20.401Z,26.00
2022-12-05T07:14:38.830Z,25.30
2022-12-05T07:15:12.556Z,25.30
2022-12-05T07:16:07.187Z,25.30
2022-12-05T07:17:03.813Z,21.70
2022-12-05T07:17:58.992Z,20.40
2022-12-05T07:18:54.932Z,24.40
2022-12-05T07:19:50.324Z,24.50
2022-12-05T07:21:10.827Z,26.40
2022-12-05T07:21:42.480Z,26.20
2022-12-05T07:22:36.914Z,24.20
2022-12-05T07:23:32.410Z,26.70
2022-12-05T07:24:28.582Z,25.50
2022-12-05T07:25:23.971Z,25.10
2022-12-05T07:26:19.776Z,25.90
2022-12-05T07:27:15.234Z,22.70
2022-12-05T07:28:10.553Z,28.20
2022-12-05T07:29:06.367Z,28.30
2022-12-05T07:30:02.048Z,29.50
2022-12-05T07:30:57.495Z,25.30
2022-12-05T07:31:52.898Z,25.30
2022-12-05T07:32:48.388Z,29.50
2022-12-05T07:33:44.018Z,31.70
2022-12-05T07:34:39.419Z,32.70
2022-12-05T07:35:34.827Z,26.20
2022-12-05T07:36:31.134Z,29.40
2022-12-05T07:37:26.530Z,29.60
2022-12-05T07:38:21.885Z,29.00
2022-12-05T07:39:16.897Z,27.80
2022-12-05T07:40:11.919Z,25.50
2022-12-05T07:41:12.852Z,29.00
2022-12-05T07:42:03.022Z,27.50
2022-12-05T07:42:57.044Z,24.40
2022-12-05T07:43:52.142Z,25.80
2022-12-05T07:44:47.212Z,25.90
2022-12-05T07:45:43.176Z,29.20
2022-12-05T07:46:38.538Z,27.60
2022-12-05T07:47:34.388Z,25.80
2022-12-05T07:48:29.801Z,24.70
2022-12-05T07:49:25.241Z,27.00
2022-12-05T07:50:20.956Z,25.40
2022-12-05T07:51:16.365Z,26.50
2022-12-05T07:52:12.305Z,26.90
2022-12-05T07:53:07.597Z,26.60
2022-12-05T07:54:03.048Z,26.90
2022-12-05T07:54:58.455Z,23.90
2022-12-05T07:55:53.871Z,26.90
2022-12-05T07:56:50.736Z,28.40
2022-12-05T07:57:46.181Z,27.00
2022-12-05T07:58:41.572Z,24.60
2022-12-05T07:59:37.435Z,29.10
2022-12-05T08:00:32.825Z,26.70
2022-12-05T08:01:28.308Z,30.10
2022-12-05T08:02:23.764Z,27.50
2022-12-05T08:03:18.899Z,23.00
2022-12-05T08:04:15.836Z,27.30
2022-12-05T08:05:08.899Z,28.00
2022-12-05T08:06:03.884Z,25.10
2022-12-05T08:06:58.904Z,25.40
2022-12-05T08:07:58.122Z,25.30
2022-12-05T08:08:53.184Z,26.90
2022-12-05T08:09:48.313Z,29.20
2022-12-05T08:10:43.358Z,27.70
2022-12-05T08:11:38.375Z,25.00
2022-12-05T08:12:33.440Z,32.20
2022-12-05T08:13:28.451Z,28.10
2022-12-05T08:14:23.780Z,33.30
2022-12-05T08:15:19.474Z,29.00
2022-12-05T08:16:15.098Z,29.40
2022-12-05T08:17:10.676Z,28.40
2022-12-05T08:18:06.505Z,29.50
2022-12-05T08:19:02.142Z,26.20
2022-12-05T08:19:58.166Z,23.70
2022-12-05T08:20:53.382Z,30.80
2022-12-05T08:21:48.977Z,27.00
2022-12-05T08:22:44.863Z,28.70
2022-12-05T08:23:40.453Z,34.60
2022-12-05T08:24:35.907Z,27.00
2022-12-05T08:25:32.230Z,30.00
2022-12-05T08:26:27.700Z,27.70
2022-12-05T08:27:23.579Z,26.20
2022-12-05T08:28:19.070Z,28.10
2022-12-05T08:29:14.498Z,29.70
2022-12-05T08:30:10.186Z,33.70
2022-12-05T08:31:05.723Z,35.80
2022-12-05T08:32:01.515Z,25.30
2022-12-05T08:32:56.926Z,29.40
2022-12-05T08:33:57.106Z,28.10
2022-12-05T08:34:49.006Z,26.70
2022-12-05T08:35:43.367Z,27.50
2022-12-05T08:36:38.814Z,27.70
2022-12-05T08:37:35.097Z,24.60
2022-12-05T08:38:30.547Z,25.50
2022-12-05T08:39:26.485Z,28.90
2022-12-05T08:40:21.811Z,25.20
2022-12-05T08:41:17.289Z,25.90
2022-12-05T08:42:13.172Z,23.80
2022-12-05T08:43:09.245Z,23.20
2022-12-05T08:44:04.410Z,26.90
2022-12-05T08:45:00.118Z,26.00
2022-12-05T08:45:55.340Z,23.50
2022-12-05T08:46:50.936Z,22.00
2022-12-05T08:47:46.373Z,26.00
2022-12-05T08:48:41.937Z,22.10
2022-12-05T08:49:38.110Z,23.00
2022-12-05T08:50:33.583Z,28.20
2022-12-05T08:51:29.467Z,24.60
2022-12-05T08:52:24.938Z,26.00
2022-12-05T08:53:20.389Z,25.90
2022-12-05T08:54:16.128Z,25.50
2022-12-05T08:55:11.603Z,25.00
2022-12-05T08:56:07.486Z,26.70
2022-12-05T08:57:02.853Z,25.60
2022-12-05T08:57:58.319Z,24.70
2022-12-05T08:58:55.658Z,23.50
2022-12-05T08:59:49.675Z,24.30
2022-12-05T09:00:44.984Z,23.40
2022-12-05T09:01:41.621Z,25.30
2022-12-05T09:02:37.132Z,22.50
2022-12-05T09:03:32.892Z,27.70
2022-12-05T09:04:28.409Z,25.60
2022-12-05T09:05:28.363Z,24.40
2022-12-05T09:06:20.578Z,25.30
2022-12-05T09:07:15.061Z,26.10
2022-12-05T09:08:11.043Z,23.50
2022-12-05T09:09:06.347Z,25.50
2022-12-05T09:10:01.774Z,29.20
2022-12-05T09:10:57.511Z,22.90
2022-12-05T09:11:52.926Z,21.50
2022-12-05T09:12:48.490Z,23.10
2022-12-05T09:13:44.104Z,23.20
2022-12-05T09:14:39.677Z,23.40
2022-12-05T09:15:35.224Z,22.30
2022-12-05T09:16:36.622Z,25.80
2022-12-05T09:17:27.382Z,23.00
2022-12-05T09:18:21.651Z,21.90
2022-12-05T09:19:17.386Z,22.20
2022-12-05T09:20:12.855Z,21.00
2022-12-05T09:21:08.183Z,23.10
2022-12-05T09:22:03.919Z,23.40
2022-12-05T09:22:59.398Z,21.20
2022-12-05T09:23:54.874Z,22.90
2022-12-05T09:24:51.413Z,20.50
2022-12-05T09:25:46.837Z,21.60
2022-12-05T09:26:42.437Z,24.60
2022-12-05T09:27:37.846Z,24.00
2022-12-05T09:28:33.321Z,19.70
2022-12-05T09:29:29.152Z,23.90
2022-12-05T09:30:24.722Z,27.70
2022-12-05T09:31:20.021Z,19.50
2022-12-05T09:32:15.375Z,27.20
2022-12-05T09:33:10.805Z,17.70
2022-12-05T09:34:05.948Z,19.20
2022-12-05T09:35:01.128Z,22.50
2022-12-05T09:35:55.909Z,20.00
2022-12-05T09:36:50.915Z,18.80
2022-12-05T09:37:45.919Z,20.50
2022-12-05T09:38:40.928Z,18.90
2022-12-05T09:39:36.017Z,19.30
2022-12-05T09:40:31.053Z,23.50
2022-12-05T09:41:26.178Z,20.50
2022-12-05T09:42:23.586Z,16.60
2022-12-05T09:43:18.654Z,22.10
2022-12-05T09:44:13.721Z,21.30
2022-12-05T09:45:08.776Z,21.70
2022-12-05T09:46:03.872Z,18.40
2022-12-05T09:46:58.823Z,24.00
2022-12-05T09:47:53.885Z,21.00
2022-12-05T09:48:48.962Z,20.20
2022-12-05T09:49:43.999Z,20.30
2022-12-05T09:50:39.032Z,21.00
2022-12-05T09:51:35.173Z,18.40
2022-12-05T09:52:30.635Z,20.00
2022-12-05T09:53:26.495Z,18.20
2022-12-05T09:54:21.979Z,20.90
2022-12-05T09:55:17.476Z,22.40
2022-12-05T09:56:13.221Z,21.90
2022-12-05T09:57:08.668Z,22.20
2022-12-05T09:58:04.544Z,21.10
2022-12-05T09:58:59.911Z,22.70
2022-12-05T09:59:55.340Z,19.20
2022-12-05T10:00:51.092Z,18.90
2022-12-05T10:01:46.617Z,22.00
2022-12-05T10:02:41.917Z,20.40
2022-12-05T10:03:38.367Z,30.40
2022-12-05T10:04:33.893Z,22.40
2022-12-05T10:05:29.830Z,21.10
2022-12-05T10:06:25.031Z,22.20
2022-12-05T10:07:20.483Z,22.20
2022-12-05T10:08:16.349Z,22.60
2022-12-05T10:09:11.691Z,23.70
2022-12-05T10:10:07.580Z,19.30
2022-12-05T10:11:02.917Z,17.80
2022-12-05T10:11:58.334Z,20.30
2022-12-05T10:12:54.063Z,20.40
2022-12-05T10:13:49.622Z,17.00
2022-12-05T10:14:44.922Z,18.00
2022-12-05T10:15:45.135Z,18.50
2022-12-05T10:16:37.081Z,17.70
2022-12-05T10:17:32.699Z,18.80
2022-12-05T10:18:28.150Z,20.30
2022-12-05T10:19:23.738Z,17.70
2022-12-05T10:20:19.358Z,22.90
2022-12-05T10:21:14.791Z,20.00
2022-12-05T10:22:10.546Z,17.50
2022-12-05T10:23:05.918Z,19.50
2022-12-05T10:24:01.354Z,18.60
2022-12-05T10:24:57.929Z,17.20
2022-12-05T10:25:53.004Z,16.60
2022-12-05T10:26:48.518Z,16.90
2022-12-05T10:27:44.832Z,15.40
2022-12-05T10:28:40.179Z,20.70
2022-12-05T10:29:36.181Z,17.40
2022-12-05T10:30:31.590Z,20.20
2022-12-05T10:31:27.236Z,17.90
2022-12-05T10:32:22.714Z,16.90
2022-12-05T10:33:18.192Z,18.60
2022-12-05T10:34:13.944Z,16.40
2022-12-05T10:35:09.419Z,16.30
2022-12-05T10:36:04.845Z,17.70
2022-12-05T10:37:00.484Z,17.50
2022-12-05T10:37:55.685Z,18.20
2022-12-05T10:38:50.669Z,18.80
2022-12-05T10:39:50.462Z,17.70
2022-12-05T10:40:45.949Z,18.30
2022-12-05T10:41:41.470Z,15.00
2022-12-05T10:42:37.244Z,14.00
2022-12-05T10:43:32.719Z,16.40
2022-12-05T10:44:28.154Z,19.70
2022-12-05T10:45:24.457Z,18.00
2022-12-05T10:46:19.961Z,16.60
2022-12-05T10:47:15.723Z,15.40
2022-12-05T10:48:11.258Z,17.90
2022-12-05T10:49:06.721Z,17.70
2022-12-05T10:50:02.492Z,16.00
2022-12-05T10:50:57.941Z,24.80
2022-12-05T10:51:53.789Z,18.80
2022-12-05T10:52:49.089Z,18.00
2022-12-05T10:53:44.545Z,16.60
2022-12-05T10:54:40.299Z,16.10
2022-12-05T10:55:35.641Z,14.40
2022-12-05T10:56:31.446Z,14.30
2022-12-05T10:57:26.970Z,17.30
2022-12-05T10:58:22.417Z,17.60
2022-12-05T10:59:18.355Z,13.50
2022-12-05T11:00:13.912Z,14.80
2022-12-05T11:01:09.171Z,15.00
2022-12-05T11:02:04.653Z,13.90
2022-12-05T11:02:59.688Z,15.20
2022-12-05T11:03:54.719Z,13.30
2022-12-05T11:04:49.844Z,11.00
2022-12-05T11:05:44.800Z,11.80
2022-12-05T11:06:39.841Z,13.80
2022-12-05T11:07:35.125Z,12.90
2022-12-05T11:09:02.062Z,15.50
2022-12-05T11:09:26.027Z,14.20
2022-12-05T11:10:24.949Z,14.30
2022-12-05T11:11:16.187Z,18.60
2022-12-05T11:12:10.312Z,14.60
2022-12-05T11:13:05.350Z,13.20
2022-12-05T11:14:00.397Z,13.70
2022-12-05T11:14:55.577Z,11.10
2022-12-05T11:15:55.276Z,11.60
2022-12-05T11:16:47.653Z,11.60
2022-12-05T11:17:41.926Z,11.40
2022-12-05T11:18:37.818Z,12.40
2022-12-05T11:19:33.271Z,13.50
2022-12-05T11:20:29.275Z,11.50
2022-12-05T11:21:24.499Z,11.60
2022-12-05T11:22:20.018Z,12.30
2022-12-05T11:23:16.019Z,12.60
2022-12-05T11:24:11.340Z,11.30
2022-12-05T11:25:06.712Z,8.90
2022-12-05T11:26:02.448Z,10.40
2022-12-05T11:26:58.012Z,13.80
2022-12-05T11:27:55.951Z,11.90
2022-12-05T11:28:50.746Z,9.70
2022-12-05T11:29:45.209Z,9.20
2022-12-05T11:30:41.027Z,11.10
2022-12-05T11:31:36.567Z,11.00
2022-12-05T11:32:32.011Z,9.20
2022-12-05T11:33:27.824Z,6.90
2022-12-05T11:34:23.208Z,7.50
2022-12-05T11:35:19.128Z,6.50
2022-12-05T11:36:14.375Z,7.00
2022-12-05T11:37:09.886Z,7.10
2022-12-05T11:38:05.723Z,9.20
2022-12-05T11:39:01.120Z,6.60
2022-12-05T11:39:56.545Z,10.10
2022-12-05T11:40:52.935Z,6.60
2022-12-05T11:41:49.244Z,6.10
2022-12-05T11:42:44.372Z,7.40
2022-12-05T11:43:39.557Z,6.30
2022-12-05T11:44:34.949Z,7.60
2022-12-05T11:45:30.870Z,9.00
2022-12-05T11:46:27.041Z,6.60
2022-12-05T11:47:22.190Z,5.70
2022-12-05T11:48:17.534Z,8.50
2022-12-05T11:49:12.905Z,6.10
2022-12-05T11:50:08.764Z,4.80
2022-12-05T11:51:04.167Z,7.70
2022-12-05T11:51:59.682Z,7.20
2022-12-05T11:52:56.890Z,10.20
2022-12-05T11:53:51.341Z,5.70
2022-12-05T11:55:43.398Z,4.90